Terminal Aerodrome Forecast
Issued by NWS Bismarck, ND

Home | Current Version | Previous Version | Graphics & Text | Print | Product List | Glossary On
Versions: 1 2 3 4 5 6 7 8 9 10 11 12 13 14 15 16
793
FTUS43 KBIS 040139 AAA
TAFISN
TAF AMD
KISN 040139Z 0402/0424 33011KT P6SM BKN030
     FM040300 32008KT P6SM OVC015
     FM041200 00000KT P6SM BKN025
     FM041500 18006KT P6SM OVC110=

USA.gov is the U.S. government's official web portal to all federal, state and local government web resources and services.